createdAt,value
2023-01-26T00:00:02.750Z,0.20
2023-01-26T00:02:02.718Z,0.20
2023-01-26T00:03:02.767Z,0.20
2023-01-26T00:04:02.756Z,0.20
2023-01-26T00:05:02.680Z,0.20
2023-01-26T00:06:02.666Z,0.20
2023-01-26T00:07:02.655Z,0.20
2023-01-26T00:08:02.642Z,0.20
2023-01-26T00:09:02.654Z,0.20
2023-01-26T00:10:02.618Z,0.20
2023-01-26T00:11:02.603Z,0.20
2023-01-26T00:12:02.611Z,0.20
2023-01-26T00:13:02.590Z,0.20
2023-01-26T00:14:02.565Z,0.20
2023-01-26T00:15:02.555Z,0.20
2023-01-26T00:16:02.596Z,0.20
2023-01-26T00:17:02.552Z,0.20
2023-01-26T00:18:02.516Z,0.20
2023-01-26T00:19:02.516Z,0.20
2023-01-26T00:20:02.506Z,0.20
2023-01-26T00:21:02.500Z,0.20
2023-01-26T00:22:02.465Z,0.20
2023-01-26T00:23:02.459Z,0.20
2023-01-26T00:24:02.483Z,0.20
2023-01-26T00:25:02.459Z,0.30
2023-01-26T00:26:02.424Z,0.20
2023-01-26T00:27:02.406Z,0.20
2023-01-26T00:28:02.397Z,0.20
2023-01-26T00:29:02.378Z,0.20
2023-01-26T00:30:02.380Z,0.30
2023-01-26T00:31:02.386Z,0.20
2023-01-26T00:32:02.341Z,0.20
2023-01-26T00:33:02.492Z,0.20
2023-01-26T00:34:02.315Z,0.20
2023-01-26T00:35:02.303Z,0.20
2023-01-26T00:36:02.288Z,0.20
2023-01-26T00:37:02.281Z,0.20
2023-01-26T00:38:02.274Z,0.20
2023-01-26T00:39:02.252Z,0.20
2023-01-26T00:40:02.236Z,0.20
2023-01-26T00:41:02.248Z,0.20
2023-01-26T00:42:02.220Z,0.20
2023-01-26T00:43:02.202Z,0.20
2023-01-26T00:44:02.238Z,0.20
2023-01-26T00:45:02.178Z,0.20
2023-01-26T00:46:02.162Z,0.20
2023-01-26T00:47:02.155Z,0.30
2023-01-26T00:48:02.152Z,0.20
2023-01-26T00:49:02.126Z,0.20
2023-01-26T00:50:02.114Z,0.20
2023-01-26T00:51:02.105Z,0.20
2023-01-26T00:52:02.104Z,0.20
2023-01-26T00:53:02.080Z,0.20
2023-01-26T00:54:02.101Z,0.20
2023-01-26T00:55:02.052Z,0.20
2023-01-26T00:56:02.040Z,0.20
2023-01-26T00:57:02.053Z,0.20
2023-01-26T00:58:02.032Z,0.20
2023-01-26T00:59:02.007Z,0.20
2023-01-26T01:00:01.987Z,0.30
2023-01-26T01:01:02.041Z,0.20
2023-01-26T01:02:02.000Z,0.20
2023-01-26T01:03:01.958Z,0.20
2023-01-26T01:04:01.939Z,0.20
2023-01-26T01:05:01.927Z,0.30
2023-01-26T01:06:01.911Z,0.20
2023-01-26T01:07:01.900Z,0.20
2023-01-26T01:08:01.924Z,0.20
2023-01-26T01:09:01.885Z,0.20
2023-01-26T01:10:01.860Z,0.20
2023-01-26T01:11:01.849Z,0.20
2023-01-26T01:12:01.842Z,0.30
2023-01-26T01:13:01.846Z,0.20
2023-01-26T01:14:01.823Z,0.20
2023-01-26T01:15:01.800Z,0.20
2023-01-26T01:16:01.809Z,0.20
2023-01-26T01:17:01.775Z,0.20
2023-01-26T01:18:01.762Z,0.10
2023-01-26T01:19:01.748Z,0.20
2023-01-26T01:20:01.735Z,0.20
2023-01-26T01:21:01.723Z,0.20
2023-01-26T01:22:01.709Z,0.20
2023-01-26T01:23:01.699Z,0.20
2023-01-26T01:24:01.724Z,0.20
2023-01-26T01:25:01.674Z,0.20
2023-01-26T01:26:01.658Z,0.20
2023-01-26T01:27:01.647Z,0.20
2023-01-26T01:28:01.637Z,0.20
2023-01-26T01:29:01.647Z,0.30
2023-01-26T01:30:01.610Z,0.20
2023-01-26T01:31:01.660Z,0.20
2023-01-26T01:32:01.623Z,0.20
2023-01-26T01:33:01.574Z,0.20
2023-01-26T01:34:01.558Z,0.20
2023-01-26T01:35:01.558Z,0.20
2023-01-26T01:36:01.538Z,0.20
2023-01-26T01:37:01.530Z,0.20
2023-01-26T01:38:01.545Z,0.20
2023-01-26T01:39:01.525Z,0.20
2023-01-26T01:40:01.534Z,0.20
2023-01-26T01:41:01.481Z,0.10
2023-01-26T01:42:01.459Z,0.30
2023-01-26T01:43:01.448Z,0.20
2023-01-26T01:44:01.435Z,0.20
2023-01-26T01:45:01.446Z,0.20
2023-01-26T01:46:01.420Z,0.20
2023-01-26T01:47:01.404Z,0.20
2023-01-26T01:48:01.385Z,0.20
2023-01-26T01:49:01.369Z,0.20
2023-01-26T01:50:01.360Z,0.20
2023-01-26T01:51:01.347Z,0.20
2023-01-26T01:52:01.343Z,0.20
2023-01-26T01:53:01.328Z,0.20
2023-01-26T01:54:01.308Z,0.20
2023-01-26T01:55:01.296Z,0.20
2023-01-26T01:56:01.292Z,0.20
2023-01-26T01:57:01.277Z,0.20
2023-01-26T01:58:01.274Z,0.20
2023-01-26T01:59:01.246Z,0.20
2023-01-26T02:00:01.272Z,0.20
2023-01-26T02:01:01.305Z,0.10
2023-01-26T02:02:01.374Z,0.20
2023-01-26T02:03:01.195Z,0.20
2023-01-26T02:04:01.186Z,0.10
2023-01-26T02:05:01.169Z,0.20
2023-01-26T02:06:01.175Z,0.10
2023-01-26T02:07:01.145Z,0.20
2023-01-26T02:08:01.135Z,0.20
2023-01-26T02:09:01.126Z,0.10
2023-01-26T02:10:01.108Z,0.20
2023-01-26T02:11:01.095Z,0.10
2023-01-26T02:12:01.084Z,0.20
2023-01-26T02:13:01.075Z,0.20
2023-01-26T02:14:01.066Z,0.20
2023-01-26T02:15:01.046Z,0.20
2023-01-26T02:16:01.100Z,0.20
2023-01-26T02:17:01.057Z,0.20
2023-01-26T02:18:01.010Z,0.20
2023-01-26T02:19:01.019Z,0.20
2023-01-26T02:20:00.985Z,0.20
2023-01-26T02:21:00.983Z,0.20
2023-01-26T02:22:00.957Z,0.20
2023-01-26T02:23:00.942Z,0.20
2023-01-26T02:24:01.005Z,0.10
2023-01-26T02:25:00.919Z,0.20
2023-01-26T02:26:00.912Z,0.20
2023-01-26T02:27:00.895Z,0.20
2023-01-26T02:28:00.883Z,0.20
2023-01-26T02:29:00.869Z,0.20
2023-01-26T02:30:00.856Z,0.20
2023-01-26T02:31:01.016Z,0.20
2023-01-26T02:32:00.833Z,0.10
2023-01-26T02:33:00.843Z,0.20
2023-01-26T02:36:00.794Z,0.20
2023-01-26T02:37:00.781Z,0.10
2023-01-26T02:38:00.776Z,0.20
2023-01-26T02:39:00.743Z,0.20
2023-01-26T02:40:00.739Z,0.20
2023-01-26T02:41:00.722Z,0.20
2023-01-26T02:42:00.729Z,0.20
2023-01-26T02:43:00.698Z,0.20
2023-01-26T02:44:00.684Z,0.20
2023-01-26T02:45:00.679Z,0.20
2023-01-26T02:46:00.739Z,0.20
2023-01-26T02:47:00.644Z,0.20
2023-01-26T02:48:00.632Z,0.20
2023-01-26T02:49:00.654Z,0.20
2023-01-26T02:50:00.633Z,0.10
2023-01-26T02:51:00.595Z,0.20
2023-01-26T02:52:00.581Z,0.20
2023-01-26T02:53:00.568Z,0.20
2023-01-26T02:54:00.559Z,0.20
2023-01-26T02:55:00.551Z,0.20
2023-01-26T02:56:00.536Z,0.20
2023-01-26T02:57:00.520Z,0.20
2023-01-26T02:58:00.505Z,0.20
2023-01-26T02:59:00.497Z,0.20
2023-01-26T03:00:00.480Z,0.10
2023-01-26T03:01:00.667Z,0.20
2023-01-26T03:02:00.528Z,0.20
2023-01-26T03:03:00.442Z,0.20
2023-01-26T03:04:00.430Z,0.20
2023-01-26T03:05:00.445Z,0.20
2023-01-26T03:06:00.421Z,0.20
2023-01-26T03:07:00.399Z,0.20
2023-01-26T03:08:00.388Z,0.20
2023-01-26T03:09:00.368Z,0.20
2023-01-26T03:10:00.356Z,0.10
2023-01-26T03:11:00.341Z,0.20
2023-01-26T03:12:00.330Z,0.20
2023-01-26T03:13:00.315Z,0.10
2023-01-26T03:14:00.310Z,0.20
2023-01-26T03:15:00.292Z,0.10
2023-01-26T03:16:00.317Z,0.20
2023-01-26T03:17:00.269Z,0.20
2023-01-26T03:18:00.256Z,0.20
2023-01-26T03:19:00.245Z,0.20
2023-01-26T03:20:00.235Z,0.20
2023-01-26T03:21:00.253Z,0.20
2023-01-26T03:22:00.205Z,0.20
2023-01-26T03:23:00.192Z,0.10
2023-01-26T03:24:00.240Z,0.20
2023-01-26T03:25:00.168Z,0.20
2023-01-26T03:26:00.170Z,0.30
2023-01-26T03:27:00.149Z,0.20
2023-01-26T03:28:00.149Z,0.10
2023-01-26T03:29:00.113Z,0.20
2023-01-26T03:30:00.151Z,0.20
2023-01-26T03:31:00.197Z,0.20
2023-01-26T03:32:00.111Z,0.20
2023-01-26T03:33:00.092Z,0.20
2023-01-26T03:34:00.067Z,0.20
2023-01-26T03:35:00.051Z,0.10
2023-01-26T03:36:00.036Z,0.20
2023-01-26T03:37:00.060Z,0.20
2023-01-26T03:38:00.006Z,0.10
2023-01-26T03:38:59.996Z,0.20
2023-01-26T03:39:59.989Z,0.20
2023-01-26T03:40:59.969Z,0.20
2023-01-26T03:41:59.955Z,0.20
2023-01-26T03:42:59.939Z,0.10
2023-01-26T03:43:59.933Z,0.20
2023-01-26T03:44:59.917Z,0.20
2023-01-26T03:45:59.904Z,0.20
2023-01-26T03:46:59.969Z,0.20
2023-01-26T03:47:59.885Z,0.10
2023-01-26T03:48:59.867Z,0.20
2023-01-26T03:49:59.864Z,0.20
2023-01-26T03:50:59.860Z,0.20
2023-01-26T03:51:59.831Z,0.20
2023-01-26T03:52:59.862Z,0.10
2023-01-26T03:53:59.803Z,0.20
2023-01-26T03:54:59.790Z,0.10
2023-01-26T03:55:59.782Z,0.20
2023-01-26T03:56:59.769Z,0.20
2023-01-26T03:57:59.753Z,0.10
2023-01-26T03:58:59.739Z,0.20
2023-01-26T03:59:59.727Z,0.20
2023-01-26T04:00:59.757Z,0.20
2023-01-26T04:01:59.762Z,0.20
2023-01-26T04:02:59.689Z,0.10
2023-01-26T04:03:59.677Z,0.20
2023-01-26T04:04:59.664Z,0.10
2023-01-26T04:06:15.584Z,0.20
2023-01-26T04:06:59.653Z,0.20
2023-01-26T04:07:59.627Z,0.10
2023-01-26T04:08:59.639Z,0.20
2023-01-26T04:09:59.601Z,0.20
2023-01-26T04:10:59.587Z,0.10
2023-01-26T04:11:59.576Z,0.20
2023-01-26T04:12:59.563Z,0.10
2023-01-26T04:13:59.554Z,0.20
2023-01-26T04:14:59.537Z,0.20
2023-01-26T04:15:59.526Z,0.10
2023-01-26T04:16:59.512Z,0.20
2023-01-26T04:17:59.514Z,0.20
2023-01-26T04:18:59.488Z,0.20
2023-01-26T04:19:59.478Z,0.20
2023-01-26T04:20:59.467Z,0.20
2023-01-26T04:21:59.458Z,0.20
2023-01-26T04:22:59.437Z,0.20
2023-01-26T04:23:59.496Z,0.20
2023-01-26T04:24:59.436Z,0.20
2023-01-26T04:25:59.406Z,0.20
2023-01-26T04:26:59.386Z,0.20
2023-01-26T04:27:59.375Z,0.20
2023-01-26T04:28:59.369Z,0.20
2023-01-26T04:29:59.352Z,0.20
2023-01-26T04:30:59.339Z,0.20
2023-01-26T04:31:59.325Z,0.20
2023-01-26T04:32:59.342Z,0.20
2023-01-26T04:33:59.301Z,0.10
2023-01-26T04:34:59.288Z,0.20
2023-01-26T04:35:59.275Z,0.20
2023-01-26T04:36:59.261Z,0.20
2023-01-26T04:37:59.257Z,0.20
2023-01-26T04:38:59.236Z,0.10
2023-01-26T04:39:59.226Z,0.20
2023-01-26T04:40:59.235Z,0.10
2023-01-26T04:41:59.201Z,0.20
2023-01-26T04:42:59.186Z,0.20
2023-01-26T04:43:59.174Z,0.10
2023-01-26T04:44:59.166Z,0.20
2023-01-26T04:45:59.293Z,0.20
2023-01-26T04:46:59.155Z,0.20
2023-01-26T04:47:59.151Z,0.20
2023-01-26T04:48:59.115Z,0.20
2023-01-26T04:49:59.117Z,0.20
2023-01-26T04:50:59.089Z,0.20
2023-01-26T04:51:59.074Z,0.20
2023-01-26T04:52:59.061Z,0.20
2023-01-26T04:53:59.070Z,0.10
2023-01-26T04:54:59.044Z,0.20
2023-01-26T04:55:59.024Z,0.20
2023-01-26T04:56:59.033Z,0.10
2023-01-26T04:57:58.999Z,0.20
2023-01-26T04:58:58.994Z,0.10
2023-01-26T04:59:58.974Z,0.20
2023-01-26T05:00:58.994Z,0.10
2023-01-26T05:01:58.945Z,0.10
2023-01-26T05:02:58.936Z,0.20
2023-01-26T05:03:58.961Z,0.10
2023-01-26T05:04:58.912Z,0.20
2023-01-26T05:05:58.899Z,0.10
2023-01-26T05:06:58.901Z,0.10
2023-01-26T05:07:58.873Z,0.20
2023-01-26T05:08:58.859Z,0.10
2023-01-26T05:09:58.848Z,0.20
2023-01-26T05:10:58.835Z,0.20
2023-01-26T05:11:58.823Z,0.10
2023-01-26T05:12:58.844Z,0.20
2023-01-26T05:13:58.798Z,0.20
2023-01-26T05:14:58.783Z,0.20
2023-01-26T05:15:58.780Z,0.10
2023-01-26T05:16:58.760Z,0.10
2023-01-26T05:17:58.753Z,0.20
2023-01-26T05:18:58.734Z,0.20
2023-01-26T05:19:58.723Z,0.20
2023-01-26T05:20:58.711Z,0.20
2023-01-26T05:21:58.699Z,0.10
2023-01-26T05:22:58.693Z,0.20
2023-01-26T05:23:58.705Z,0.20
2023-01-26T05:24:58.662Z,0.10
2023-01-26T05:25:58.649Z,0.20
2023-01-26T05:26:58.633Z,0.10
2023-01-26T05:27:58.623Z,0.20
2023-01-26T05:28:58.637Z,0.20
2023-01-26T05:29:58.602Z,0.10
2023-01-26T05:30:58.623Z,0.20
2023-01-26T05:31:58.614Z,0.10
2023-01-26T05:32:58.560Z,0.20
2023-01-26T05:33:58.554Z,0.20
2023-01-26T05:34:58.543Z,0.10
2023-01-26T05:35:58.521Z,0.20
2023-01-26T05:36:58.512Z,0.10
2023-01-26T05:37:58.496Z,0.20
2023-01-26T05:38:58.485Z,0.10
2023-01-26T05:39:58.470Z,0.20
2023-01-26T05:40:58.460Z,0.20
2023-01-26T05:41:58.447Z,0.10
2023-01-26T05:42:58.436Z,0.20
2023-01-26T05:43:58.422Z,0.20
2023-01-26T05:44:58.434Z,0.20
2023-01-26T05:45:58.447Z,0.20
2023-01-26T05:46:58.386Z,0.10
2023-01-26T05:47:58.373Z,0.20
2023-01-26T05:48:58.362Z,0.10
2023-01-26T05:49:58.356Z,0.20
2023-01-26T05:50:58.332Z,0.20
2023-01-26T05:51:58.319Z,0.10
2023-01-26T05:52:58.307Z,0.20
2023-01-26T05:53:58.295Z,0.20
2023-01-26T05:54:58.288Z,0.20
2023-01-26T05:55:58.270Z,0.20
2023-01-26T05:56:58.257Z,0.10
2023-01-26T05:57:58.245Z,0.20
2023-01-26T05:58:58.232Z,0.20
2023-01-26T05:59:58.235Z,0.20
2023-01-26T06:00:58.235Z,0.20
2023-01-26T06:01:58.246Z,0.10
2023-01-26T06:02:58.195Z,0.20
2023-01-26T06:03:58.206Z,0.10
2023-01-26T06:04:58.157Z,0.20
2023-01-26T06:05:58.145Z,0.20
2023-01-26T06:06:58.136Z,0.10
2023-01-26T06:07:58.118Z,0.20
2023-01-26T06:09:58.099Z,0.20
2023-01-26T06:10:58.082Z,0.20
2023-01-26T06:11:58.071Z,0.20
2023-01-26T06:12:58.056Z,0.20
2023-01-26T06:13:58.048Z,0.20
2023-01-26T06:14:58.033Z,0.20
2023-01-26T06:15:58.018Z,0.20
2023-01-26T06:16:58.110Z,0.10
2023-01-26T06:17:57.994Z,0.20
2023-01-26T06:18:57.984Z,0.20
2023-01-26T06:19:57.968Z,0.20
2023-01-26T06:20:57.958Z,0.20
2023-01-26T06:21:57.959Z,0.10
2023-01-26T06:22:57.934Z,0.20
2023-01-26T06:23:57.949Z,0.10
2023-01-26T06:24:57.908Z,0.20
2023-01-26T06:25:57.893Z,0.20
2023-01-26T06:26:57.881Z,0.10
2023-01-26T06:27:57.868Z,0.20
2023-01-26T06:28:57.855Z,0.20
2023-01-26T06:29:57.843Z,0.20
2023-01-26T06:30:57.955Z,0.20
2023-01-26T06:31:57.819Z,0.10
2023-01-26T06:32:59.915Z,0.20
2023-01-26T06:33:57.792Z,0.10
2023-01-26T06:34:57.786Z,0.20
2023-01-26T06:35:57.771Z,0.20
2023-01-26T06:36:57.756Z,0.10
2023-01-26T06:37:57.751Z,0.20
2023-01-26T06:39:00.618Z,0.20
2023-01-26T06:39:57.737Z,0.20
2023-01-26T06:40:57.705Z,0.20
2023-01-26T06:41:57.725Z,0.10
2023-01-26T06:42:57.684Z,0.20
2023-01-26T06:43:57.672Z,0.20
2023-01-26T06:44:57.657Z,0.20
2023-01-26T06:45:57.660Z,0.20
2023-01-26T06:46:57.634Z,0.10
2023-01-26T06:47:57.621Z,0.20
2023-01-26T06:48:57.648Z,0.10
2023-01-26T06:49:57.591Z,0.10
2023-01-26T06:50:57.583Z,0.20
2023-01-26T06:51:57.574Z,0.10
2023-01-26T06:52:57.555Z,0.20
2023-01-26T06:53:57.576Z,0.20
2023-01-26T06:54:57.534Z,0.10
2023-01-26T06:55:57.515Z,0.20
2023-01-26T06:56:57.505Z,0.20
2023-01-26T06:57:57.513Z,0.20
2023-01-26T06:58:57.487Z,0.20
2023-01-26T06:59:57.528Z,0.10
2023-01-26T07:00:57.479Z,0.20
2023-01-26T07:01:57.451Z,0.10
2023-01-26T07:02:57.434Z,0.20
2023-01-26T07:03:57.419Z,0.10
2023-01-26T07:04:57.431Z,0.10
2023-01-26T07:05:57.395Z,0.20
2023-01-26T07:06:57.379Z,0.20
2023-01-26T07:07:57.364Z,0.20
2023-01-26T07:08:57.357Z,0.20
2023-01-26T07:09:57.341Z,0.10
2023-01-26T07:10:57.330Z,0.20
2023-01-26T07:11:57.315Z,0.10
2023-01-26T07:12:57.303Z,0.20
2023-01-26T07:13:57.287Z,0.20
2023-01-26T07:14:57.285Z,0.10
2023-01-26T07:15:57.265Z,0.20
2023-01-26T07:16:57.252Z,0.20
2023-01-26T07:17:57.245Z,0.20
2023-01-26T07:18:57.232Z,0.40
2023-01-26T07:19:57.219Z,12.30
2023-01-26T07:20:57.244Z,0.30
2023-01-26T07:21:57.255Z,0.30
2023-01-26T07:22:57.198Z,0.30
2023-01-26T07:23:57.218Z,0.30
2023-01-26T07:24:57.153Z,0.30
2023-01-26T07:25:57.149Z,0.30
2023-01-26T07:26:57.161Z,0.40
2023-01-26T07:27:57.116Z,0.40
2023-01-26T07:28:57.134Z,0.30
2023-01-26T07:29:57.088Z,25.20
2023-01-26T07:30:57.254Z,0.30
2023-01-26T07:31:57.202Z,0.30
2023-01-26T07:32:57.060Z,0.30
2023-01-26T07:33:57.044Z,0.30
2023-01-26T07:34:57.039Z,0.30
2023-01-26T07:35:57.019Z,0.30
2023-01-26T07:36:57.027Z,0.30
2023-01-26T07:37:56.989Z,0.30
2023-01-26T07:38:56.996Z,0.20
2023-01-26T07:51:56.815Z,7.90
2023-01-26T07:52:56.828Z,0.30
2023-01-26T07:53:56.788Z,0.30
2023-01-26T07:54:56.797Z,0.30
2023-01-26T07:55:56.762Z,0.30
2023-01-26T07:56:56.754Z,0.20
2023-01-26T07:57:56.741Z,0.30
2023-01-26T07:58:56.726Z,0.30
2023-01-26T07:59:56.716Z,0.30
2023-01-26T08:00:56.703Z,0.30
2023-01-26T08:02:56.707Z,37.79
2023-01-26T08:03:56.665Z,38.20
2023-01-26T08:04:56.652Z,37.50
2023-01-26T08:05:56.646Z,37.59
2023-01-26T08:06:56.625Z,37.79
2023-01-26T08:07:56.618Z,38.29
2023-01-26T08:08:56.641Z,36.79
2023-01-26T08:09:56.587Z,36.20
2023-01-26T08:10:56.579Z,36.20
2023-01-26T08:11:56.564Z,36.29
2023-01-26T08:27:56.365Z,32.09
2023-01-26T08:28:56.352Z,32.29
2023-01-26T08:29:56.338Z,30.10
2023-01-26T08:30:56.341Z,29.89
2023-01-26T08:31:56.429Z,27.60
2023-01-26T08:32:56.302Z,26.60
2023-01-26T08:33:56.291Z,28.50
2023-01-26T08:34:56.277Z,30.00
2023-01-26T08:35:56.277Z,33.00
2023-01-26T08:36:56.256Z,33.20
2023-01-26T08:37:56.250Z,36.29
2023-01-26T08:38:56.226Z,35.09
2023-01-26T08:39:56.214Z,31.50
2023-01-26T08:40:56.246Z,30.79
2023-01-26T08:41:56.187Z,29.89
2023-01-26T08:42:56.176Z,28.70
2023-01-26T08:44:56.154Z,26.60
2023-01-26T08:45:56.152Z,27.20
2023-01-26T08:46:56.123Z,28.79
2023-01-26T08:47:56.115Z,30.20
2023-01-26T08:48:57.264Z,29.20
2023-01-26T08:49:56.089Z,28.10
2023-01-26T08:50:56.088Z,27.70
2023-01-26T08:51:56.066Z,28.20
2023-01-26T08:52:56.055Z,27.70
2023-01-26T08:53:56.036Z,27.20
2023-01-26T08:54:56.025Z,29.10
2023-01-26T08:55:56.021Z,34.09
2023-01-26T08:56:56.021Z,36.50
2023-01-26T08:57:55.985Z,34.90
2023-01-26T08:58:55.984Z,34.59
2023-01-26T08:59:55.961Z,31.50
2023-01-26T09:00:55.988Z,27.60
2023-01-26T09:01:56.036Z,25.89
2023-01-26T09:02:56.114Z,25.89
2023-01-26T09:03:55.908Z,20.29
2023-01-26T09:04:55.895Z,20.70
2023-01-26T09:05:55.883Z,20.20
2023-01-26T09:06:55.873Z,19.70
2023-01-26T09:07:55.859Z,20.20
2023-01-26T09:08:55.848Z,19.89
2023-01-26T09:09:55.836Z,21.29
2023-01-26T09:10:55.821Z,21.00
2023-01-26T09:11:55.814Z,23.50
2023-01-26T09:12:55.820Z,21.10
2023-01-26T09:13:55.783Z,22.00
2023-01-26T09:14:55.771Z,21.29
2023-01-26T09:15:55.761Z,22.70
2023-01-26T09:16:55.837Z,24.29
2023-01-26T09:17:55.734Z,21.79
2023-01-26T09:18:55.737Z,22.50
2023-01-26T09:19:55.711Z,23.29
2023-01-26T09:20:55.716Z,22.60
2023-01-26T09:21:55.687Z,24.29
2023-01-26T09:22:55.675Z,24.20
2023-01-26T09:23:55.726Z,23.39
2023-01-26T09:24:55.646Z,24.00
2023-01-26T09:25:55.640Z,28.20
2023-01-26T09:26:55.628Z,27.10
2023-01-26T09:28:55.631Z,24.89
2023-01-26T09:29:55.627Z,24.39
2023-01-26T09:30:55.668Z,24.60
2023-01-26T09:31:55.738Z,25.29
2023-01-26T09:32:55.557Z,26.89
2023-01-26T09:33:55.542Z,29.00
2023-01-26T09:34:55.526Z,23.20
2023-01-26T09:35:55.515Z,25.70
2023-01-26T09:36:55.500Z,22.39
2023-01-26T09:37:55.485Z,23.89
2023-01-26T09:38:55.478Z,23.70
2023-01-26T09:39:55.464Z,25.29
2023-01-26T09:40:55.453Z,24.39
2023-01-26T09:41:55.439Z,25.00
2023-01-26T09:42:55.431Z,25.89
2023-01-26T09:43:55.415Z,28.39
2023-01-26T09:44:55.427Z,26.60
2023-01-26T09:45:55.406Z,26.29
2023-01-26T09:46:55.386Z,26.10
2023-01-26T09:47:55.367Z,27.39
2023-01-26T09:48:55.353Z,30.20
2023-01-26T09:49:56.965Z,29.50
2023-01-26T09:50:55.346Z,28.10
2023-01-26T09:51:55.315Z,28.20
2023-01-26T09:52:55.314Z,30.29
2023-01-26T09:53:55.291Z,30.10
2023-01-26T09:54:55.285Z,31.70
2023-01-26T09:55:55.268Z,30.39
2023-01-26T09:56:55.259Z,30.00
2023-01-26T09:57:55.242Z,26.79
2023-01-26T09:58:55.232Z,28.39
2023-01-26T09:59:55.235Z,28.89
2023-01-26T10:00:55.255Z,28.79
2023-01-26T10:01:55.195Z,30.10
2023-01-26T10:02:55.208Z,29.20
2023-01-26T10:03:55.170Z,30.39
2023-01-26T10:04:55.160Z,30.20
2023-01-26T10:05:55.152Z,29.89
2023-01-26T10:06:55.137Z,30.70
2023-01-26T10:07:55.119Z,28.89
2023-01-26T10:08:55.110Z,29.10
2023-01-26T10:09:55.110Z,28.10
2023-01-26T10:10:55.085Z,28.79
2023-01-26T10:11:55.071Z,27.60
2023-01-26T10:12:55.074Z,29.10
2023-01-26T10:13:55.048Z,29.20
2023-01-26T10:14:57.442Z,31.00
2023-01-26T10:15:55.053Z,28.70
2023-01-26T10:16:55.030Z,28.89
2023-01-26T10:17:55.043Z,30.00
2023-01-26T10:18:54.984Z,28.10
2023-01-26T10:19:54.975Z,28.39
2023-01-26T10:20:54.954Z,26.39
2023-01-26T10:21:54.942Z,28.79
2023-01-26T10:22:54.935Z,28.29
2023-01-26T10:23:54.945Z,30.10
2023-01-26T10:24:54.904Z,28.29
2023-01-26T10:25:54.900Z,33.00
2023-01-26T10:26:54.876Z,34.70
2023-01-26T10:27:54.870Z,35.20
2023-01-26T10:28:54.878Z,36.20
2023-01-26T10:29:54.866Z,35.59
2023-01-26T10:30:55.018Z,33.50
2023-01-26T10:31:54.814Z,28.70
2023-01-26T10:32:54.825Z,31.70
2023-01-26T10:33:54.793Z,35.09
2023-01-26T10:34:54.774Z,34.90
2023-01-26T10:35:54.764Z,31.60
2023-01-26T10:36:54.752Z,32.40
2023-01-26T10:37:54.748Z,34.50
2023-01-26T10:38:54.727Z,33.79
2023-01-26T10:39:54.711Z,34.59
2023-01-26T10:40:54.723Z,38.50
2023-01-26T10:41:54.685Z,38.20
2023-01-26T10:42:54.673Z,35.29
2023-01-26T10:43:54.675Z,30.29
2023-01-26T10:44:54.643Z,29.39
2023-01-26T10:45:54.664Z,30.20
2023-01-26T10:46:54.625Z,31.29
2023-01-26T10:47:54.605Z,32.29
2023-01-26T10:48:54.617Z,29.39
2023-01-26T10:49:54.617Z,30.79
2023-01-26T10:50:54.585Z,29.29
2023-01-26T10:51:54.549Z,29.60
2023-01-26T10:52:54.554Z,30.00
2023-01-26T10:53:54.528Z,31.60
2023-01-26T10:54:54.514Z,29.60
2023-01-26T10:55:54.503Z,31.20
2023-01-26T10:56:54.513Z,29.50
2023-01-26T10:57:54.473Z,30.60
2023-01-26T10:58:54.470Z,30.10
2023-01-26T10:59:54.449Z,30.89
2023-01-26T11:00:54.435Z,30.39
2023-01-26T11:01:54.690Z,29.00
2023-01-26T11:02:54.480Z,30.60
2023-01-26T11:03:55.317Z,29.29
2023-01-26T11:04:54.409Z,29.60
2023-01-26T11:05:54.374Z,31.70
2023-01-26T11:06:54.368Z,33.09
2023-01-26T11:07:54.370Z,34.40
2023-01-26T11:08:54.329Z,31.50
2023-01-26T11:09:54.334Z,31.70
2023-01-26T11:10:54.304Z,33.09
2023-01-26T11:11:54.298Z,39.70
2023-01-26T11:12:54.281Z,39.59
2023-01-26T11:13:54.265Z,44.59
2023-01-26T11:14:54.247Z,45.70
2023-01-26T11:15:54.299Z,47.79
2023-01-26T11:16:54.222Z,46.50
2023-01-26T11:17:54.210Z,47.20
2023-01-26T11:18:54.197Z,46.90
2023-01-26T11:19:54.184Z,47.59
2023-01-26T11:20:54.200Z,48.90
2023-01-26T11:21:54.158Z,47.59
2023-01-26T11:22:54.147Z,48.09
2023-01-26T11:23:54.213Z,47.29
2023-01-26T11:24:54.115Z,41.70
2023-01-26T11:25:54.106Z,46.29
2023-01-26T11:26:54.094Z,49.29
2023-01-26T11:27:54.086Z,49.09
2023-01-26T11:28:54.102Z,51.09
2023-01-26T11:29:54.052Z,51.79
2023-01-26T11:30:54.060Z,51.59
2023-01-26T11:31:54.134Z,51.59
2023-01-26T11:32:54.013Z,48.70
2023-01-26T11:33:54.001Z,50.59
2023-01-26T11:34:53.987Z,48.09
2023-01-26T11:35:53.980Z,45.59
2023-01-26T11:36:53.987Z,42.40
2023-01-26T11:37:54.138Z,41.09
2023-01-26T11:38:53.936Z,38.70
2023-01-26T11:39:53.927Z,35.90
2023-01-26T11:40:53.919Z,33.09
2023-01-26T11:41:53.901Z,32.20
2023-01-26T11:42:53.889Z,33.40
2023-01-26T11:43:53.891Z,33.50
2023-01-26T11:44:53.862Z,33.00
2023-01-26T11:45:55.669Z,33.59
2023-01-26T11:46:53.835Z,36.59
2023-01-26T11:47:53.825Z,34.70
2023-01-26T11:48:53.809Z,33.09
2023-01-26T11:49:53.800Z,32.70
2023-01-26T11:50:53.785Z,32.20
2023-01-26T11:51:53.777Z,31.79
2023-01-26T11:52:53.916Z,32.20
2023-01-26T11:53:53.760Z,32.90
2023-01-26T11:54:53.733Z,33.50
2023-01-26T11:55:53.723Z,31.00
2023-01-26T11:56:53.715Z,31.60
2023-01-26T11:57:53.697Z,31.39
2023-01-26T11:58:53.683Z,32.90
2023-01-26T11:59:53.678Z,30.89
2023-01-26T12:00:53.659Z,30.70
2023-01-26T12:01:53.740Z,30.60
2023-01-26T12:02:53.694Z,31.50
2023-01-26T12:03:53.619Z,31.79
2023-01-26T12:04:53.606Z,32.40
2023-01-26T12:05:53.597Z,30.60
2023-01-26T12:06:53.617Z,30.00
2023-01-26T12:07:53.571Z,31.20
2023-01-26T12:08:53.575Z,29.79
2023-01-26T12:09:53.544Z,30.00
2023-01-26T12:10:53.531Z,29.79
2023-01-26T12:11:53.539Z,30.20
2023-01-26T12:12:53.514Z,30.20
2023-01-26T12:13:53.493Z,30.70
2023-01-26T12:14:53.504Z,30.29
2023-01-26T12:15:53.468Z,30.00
2023-01-26T12:16:54.376Z,29.60
2023-01-26T12:17:53.450Z,29.10
2023-01-26T12:19:09.148Z,29.20
2023-01-26T12:19:53.481Z,30.39
2023-01-26T12:20:53.403Z,31.60
2023-01-26T12:21:53.448Z,30.10
2023-01-26T12:22:53.411Z,29.89
2023-01-26T12:23:53.402Z,30.00
2023-01-26T12:25:17.583Z,28.89
2023-01-26T12:25:55.356Z,30.29
2023-01-26T12:26:53.324Z,30.20
2023-01-26T12:27:53.313Z,30.39
2023-01-26T12:28:53.306Z,28.79
2023-01-26T12:29:53.286Z,30.20
2023-01-26T12:30:53.421Z,29.29
2023-01-26T12:31:53.265Z,27.70
2023-01-26T12:32:53.245Z,28.70
2023-01-26T12:33:53.281Z,26.00
2023-01-26T12:34:53.219Z,26.79
2023-01-26T12:35:53.214Z,25.70
2023-01-26T12:36:53.199Z,27.10
2023-01-26T12:37:53.180Z,27.10
2023-01-26T12:38:53.163Z,27.89
2023-01-26T12:39:53.155Z,27.60
2023-01-26T12:40:53.171Z,28.50
2023-01-26T12:41:53.135Z,27.29
2023-01-26T12:42:53.114Z,29.00
2023-01-26T12:43:53.104Z,27.60
2023-01-26T12:44:53.100Z,28.60
2023-01-26T12:45:53.101Z,32.20
2023-01-26T12:46:53.065Z,33.50
2023-01-26T12:47:53.048Z,32.50
2023-01-26T12:48:53.032Z,33.59
2023-01-26T12:49:53.131Z,37.29
2023-01-26T12:50:53.009Z,33.40
2023-01-26T12:51:53.006Z,31.50
2023-01-26T12:52:52.997Z,33.29
2023-01-26T12:53:52.977Z,34.59
2023-01-26T12:54:52.955Z,33.70
2023-01-26T12:55:52.945Z,35.90
2023-01-26T12:56:52.950Z,33.59
2023-01-26T12:57:52.915Z,35.20
2023-01-26T12:58:52.901Z,36.50
2023-01-26T12:59:52.890Z,37.40
2023-01-26T13:00:52.876Z,34.79
2023-01-26T13:01:52.864Z,35.90
2023-01-26T13:02:52.920Z,35.00
2023-01-26T13:03:52.839Z,30.89
2023-01-26T13:04:52.828Z,30.60
2023-01-26T13:05:52.812Z,28.10
2023-01-26T13:06:52.799Z,28.20
2023-01-26T13:07:52.785Z,28.70
2023-01-26T13:08:52.769Z,29.00
2023-01-26T13:09:52.758Z,30.29
2023-01-26T13:10:52.750Z,30.89
2023-01-26T13:11:52.743Z,30.70
2023-01-26T13:12:52.746Z,31.60
2023-01-26T13:13:52.706Z,30.70
2023-01-26T13:14:52.691Z,30.50
2023-01-26T13:15:52.789Z,29.00
2023-01-26T13:16:52.666Z,29.10
2023-01-26T13:17:52.656Z,29.50
2023-01-26T13:18:52.648Z,35.70
2023-01-26T13:19:52.647Z,33.09
2023-01-26T13:20:52.619Z,29.50
2023-01-26T13:21:52.600Z,23.79
2023-01-26T13:22:52.590Z,21.89
2023-01-26T13:23:53.026Z,21.89
2023-01-26T13:24:52.562Z,25.70
2023-01-26T13:25:56.594Z,23.10
2023-01-26T13:26:52.540Z,18.50
2023-01-26T13:27:52.522Z,15.10
2023-01-26T13:28:52.534Z,13.10
2023-01-26T13:29:52.496Z,12.39
2023-01-26T13:30:52.660Z,12.19
2023-01-26T13:31:52.482Z,12.50
2023-01-26T13:32:52.460Z,12.89
2023-01-26T13:33:52.448Z,13.50
2023-01-26T13:34:52.429Z,14.00
2023-01-26T13:35:52.419Z,14.89
2023-01-26T13:36:52.403Z,14.60
2023-01-26T13:37:52.391Z,14.30
2023-01-26T13:38:52.375Z,14.30
2023-01-26T13:39:52.377Z,13.19
2023-01-26T13:40:52.352Z,13.00